createdAt,value
2023-05-19T00:00:16.949Z,92.25
2023-05-19T00:01:19.117Z,91.92
2023-05-19T00:02:21.168Z,92.26
2023-05-19T00:03:23.104Z,91.91
2023-05-19T00:04:24.861Z,91.42
2023-05-19T00:05:28.071Z,90.97
2023-05-19T00:06:32.134Z,91.02
2023-05-19T00:07:34.681Z,90.29
2023-05-19T00:08:38.331Z,91.21
2023-05-19T00:09:40.152Z,91.46
2023-05-19T00:10:42.118Z,93.15
2023-05-19T00:11:43.990Z,92.68
2023-05-19T00:12:45.802Z,92.89
2023-05-19T00:13:49.708Z,91.58
2023-05-19T00:14:51.960Z,91.79
2023-05-19T00:15:54.046Z,92.02
2023-05-19T00:16:56.241Z,92.19
2023-05-19T00:17:58.120Z,91.57
2023-05-19T00:19:01.553Z,92.47
2023-05-19T00:20:07.470Z,92.16
2023-05-19T00:21:09.547Z,92.59
2023-05-19T00:22:11.521Z,92.01
2023-05-19T00:23:13.112Z,92.39
2023-05-19T00:24:14.733Z,93.22
2023-05-19T00:25:16.322Z,93.79
2023-05-19T00:26:18.258Z,94.24
2023-05-19T00:27:19.829Z,93.93
2023-05-19T00:28:21.368Z,95.00
2023-05-19T00:29:23.004Z,95.87
2023-05-19T00:30:24.809Z,96.13
2023-05-19T00:31:26.488Z,96.68
2023-05-19T00:32:28.079Z,96.65
2023-05-19T00:33:29.798Z,96.75
2023-05-19T00:34:31.400Z,97.27
2023-05-19T00:35:33.125Z,98.25
2023-05-19T00:36:34.748Z,99.63
2023-05-19T00:37:36.394Z,100.00
2023-05-19T00:38:38.396Z,100.00
2023-05-19T00:39:40.024Z,100.00
2023-05-19T00:40:41.711Z,100.00
2023-05-19T00:41:43.440Z,99.95
2023-05-19T00:42:45.134Z,99.56
2023-05-19T00:43:46.722Z,99.15
2023-05-19T00:44:48.315Z,99.39
2023-05-19T00:45:51.246Z,99.28
2023-05-19T00:46:52.884Z,98.97
2023-05-19T00:47:54.689Z,99.08
2023-05-19T00:48:56.376Z,98.28
2023-05-19T00:49:57.901Z,98.57
2023-05-19T00:51:04.736Z,98.47
2023-05-19T00:52:07.286Z,98.66
2023-05-19T00:53:09.307Z,98.92
2023-05-19T00:54:10.917Z,99.42
2023-05-19T00:55:14.024Z,99.30
2023-05-19T00:56:17.526Z,98.77
2023-05-19T00:57:19.393Z,98.63
2023-05-19T00:58:21.121Z,98.07
2023-05-19T00:59:22.726Z,96.89
2023-05-19T01:00:24.589Z,96.17
2023-05-19T01:01:26.849Z,97.17
2023-05-19T01:02:29.856Z,99.16
2023-05-19T01:03:35.237Z,100.00
2023-05-19T01:04:38.295Z,100.00
2023-05-19T01:05:44.893Z,100.00
2023-05-19T01:06:54.833Z,100.00
2023-05-19T01:07:56.610Z,100.00
2023-05-19T01:08:58.376Z,100.00
2023-05-19T01:10:00.335Z,100.00
2023-05-19T01:11:01.916Z,100.00
2023-05-19T01:12:04.054Z,100.00
2023-05-19T01:13:07.033Z,100.00
2023-05-19T01:14:09.154Z,100.00
2023-05-19T01:15:11.661Z,100.00
2023-05-19T01:16:16.168Z,100.00
2023-05-19T01:17:44.951Z,100.00
2023-05-19T01:19:12.675Z,100.00
2023-05-19T01:20:25.959Z,100.00
2023-05-19T01:21:51.223Z,100.00
2023-05-19T01:23:28.825Z,100.00
2023-05-19T01:25:07.054Z,100.00
2023-05-19T01:26:29.807Z,99.97
2023-05-19T01:27:34.248Z,99.50
2023-05-19T01:28:44.891Z,99.50
2023-05-19T01:30:13.497Z,99.90
2023-05-19T01:31:16.959Z,99.38
2023-05-19T01:32:21.094Z,98.89
2023-05-19T01:33:24.048Z,98.41
2023-05-19T01:34:27.452Z,97.62
2023-05-19T01:35:30.836Z,97.83
2023-05-19T01:36:33.835Z,97.64
2023-05-19T01:37:38.863Z,97.25
2023-05-19T01:38:42.614Z,98.44
2023-05-19T01:39:45.716Z,99.37
2023-05-19T01:40:49.555Z,100.00
2023-05-19T01:41:52.437Z,100.00
2023-05-19T01:42:57.687Z,100.00
2023-05-19T01:43:59.987Z,100.00
2023-05-19T01:45:02.268Z,100.00
2023-05-19T01:46:04.370Z,100.00
2023-05-19T01:47:06.361Z,100.00
2023-05-19T01:48:10.899Z,100.00
2023-05-19T01:49:13.549Z,100.00
2023-05-19T01:50:15.421Z,100.00
2023-05-19T01:51:17.108Z,100.00
2023-05-19T01:52:18.696Z,99.83
2023-05-19T01:53:20.366Z,100.00
2023-05-19T01:54:21.950Z,100.00
2023-05-19T01:55:23.901Z,99.97
2023-05-19T01:56:41.281Z,99.25
2023-05-19T01:58:17.680Z,99.62
2023-05-19T01:59:39.241Z,98.47
2023-05-19T02:00:54.273Z,97.99
2023-05-19T02:02:00.729Z,97.73
2023-05-19T02:03:23.605Z,97.19
2023-05-19T02:04:30.484Z,96.95
2023-05-19T02:05:38.314Z,96.75
2023-05-19T02:07:03.801Z,96.92
2023-05-19T02:08:37.409Z,97.08
2023-05-19T02:09:51.490Z,97.85
2023-05-19T02:11:04.223Z,98.71
2023-05-19T02:12:25.977Z,100.00
2023-05-19T02:13:32.801Z,100.00
2023-05-19T02:14:40.256Z,100.00
2023-05-19T02:15:42.496Z,100.00
2023-05-19T02:16:47.640Z,100.00
2023-05-19T02:17:54.408Z,99.45
2023-05-19T02:18:56.495Z,99.28
2023-05-19T02:19:58.143Z,99.42
2023-05-19T02:20:59.795Z,99.94
2023-05-19T02:22:01.419Z,99.16
2023-05-19T02:23:03.013Z,98.75
2023-05-19T02:24:04.804Z,98.60
2023-05-19T02:25:07.098Z,98.06
2023-05-19T02:26:08.837Z,97.80
2023-05-19T02:27:10.584Z,97.95
2023-05-19T02:28:12.161Z,97.01
2023-05-19T02:29:13.822Z,96.50
2023-05-19T02:30:15.574Z,95.57
2023-05-19T02:31:17.174Z,95.79
2023-05-19T02:32:18.966Z,95.27
2023-05-19T02:33:20.748Z,94.81
2023-05-19T02:34:22.966Z,94.56
2023-05-19T02:35:24.547Z,94.40
2023-05-19T02:36:26.672Z,94.53
2023-05-19T02:37:32.574Z,95.81
2023-05-19T02:38:34.214Z,95.85
2023-05-19T02:39:35.957Z,95.85
2023-05-19T02:40:37.538Z,96.03
2023-05-19T02:41:39.508Z,96.22
2023-05-19T02:42:41.768Z,96.82
2023-05-19T02:43:43.629Z,97.51
2023-05-19T02:44:45.260Z,99.37
2023-05-19T02:45:46.856Z,100.00
2023-05-19T02:46:48.575Z,100.00
2023-05-19T02:47:50.364Z,100.00
2023-05-19T02:48:53.411Z,99.84
2023-05-19T02:49:55.164Z,99.94
2023-05-19T02:50:56.755Z,100.00
2023-05-19T02:51:58.352Z,100.00
2023-05-19T02:52:59.932Z,100.00
2023-05-19T02:54:01.546Z,100.00
2023-05-19T02:55:03.489Z,99.93
2023-05-19T02:56:05.129Z,98.41
2023-05-19T02:57:07.158Z,98.26
2023-05-19T02:58:08.756Z,97.43
2023-05-19T02:59:10.439Z,97.29
2023-05-19T03:00:12.532Z,96.56
2023-05-19T03:01:14.162Z,96.74
2023-05-19T03:02:15.840Z,97.52
2023-05-19T03:03:18.327Z,97.32
2023-05-19T03:04:20.229Z,97.61
2023-05-19T03:05:21.859Z,97.13
2023-05-19T03:06:23.658Z,96.74
2023-05-19T03:07:25.529Z,96.36
2023-05-19T03:08:27.277Z,96.02
2023-05-19T03:09:28.884Z,95.54
2023-05-19T03:10:31.525Z,93.67
2023-05-19T03:11:33.381Z,93.74
2023-05-19T03:12:34.996Z,94.72
2023-05-19T03:13:36.734Z,94.17
2023-05-19T03:14:38.802Z,93.88
2023-05-19T03:15:42.490Z,93.99
2023-05-19T03:16:44.220Z,95.79
2023-05-19T03:17:46.077Z,96.41
2023-05-19T03:18:47.913Z,95.22
2023-05-19T03:19:49.536Z,95.18
2023-05-19T03:20:51.288Z,94.32
2023-05-19T03:21:52.834Z,94.82
2023-05-19T03:22:54.468Z,95.64
2023-05-19T03:23:56.089Z,95.74
2023-05-19T03:24:58.551Z,95.87
2023-05-19T03:26:00.168Z,95.89
2023-05-19T03:27:02.574Z,96.11
2023-05-19T03:28:04.319Z,95.95
2023-05-19T03:29:06.023Z,95.78
2023-05-19T03:30:08.248Z,95.92
2023-05-19T03:31:09.851Z,96.33
2023-05-19T03:32:11.515Z,95.92
2023-05-19T03:33:13.279Z,98.46
2023-05-19T03:34:15.002Z,98.60
2023-05-19T03:35:16.653Z,98.17
2023-05-19T03:36:18.257Z,98.78
2023-05-19T03:37:19.836Z,99.55
2023-05-19T03:38:21.463Z,100.00
2023-05-19T03:39:23.104Z,100.00
2023-05-19T03:40:24.748Z,100.00
2023-05-19T03:41:26.405Z,100.00
2023-05-19T03:42:27.990Z,100.00
2023-05-19T03:43:29.676Z,100.00
2023-05-19T03:44:31.280Z,100.00
2023-05-19T03:45:35.030Z,99.96
2023-05-19T03:46:36.594Z,99.13
2023-05-19T03:47:38.233Z,98.57
2023-05-19T03:48:39.871Z,98.29
2023-05-19T03:49:41.545Z,97.21
2023-05-19T03:50:44.622Z,94.94
2023-05-19T03:51:46.282Z,95.10
2023-05-19T03:52:48.956Z,95.31
2023-05-19T03:53:50.922Z,95.65
2023-05-19T03:54:53.016Z,95.51
2023-05-19T03:55:56.158Z,95.32
2023-05-19T03:56:58.208Z,95.81
2023-05-19T03:57:59.886Z,95.94
2023-05-19T03:59:01.568Z,96.24
2023-05-19T04:00:05.733Z,95.43
2023-05-19T04:01:07.293Z,94.33
2023-05-19T04:02:08.894Z,95.24
2023-05-19T04:03:10.798Z,95.90
2023-05-19T04:04:12.526Z,96.22
2023-05-19T04:05:14.863Z,96.15
2023-05-19T04:06:17.635Z,96.37
2023-05-19T04:07:19.391Z,96.66
2023-05-19T04:08:21.049Z,96.84
2023-05-19T04:09:24.167Z,96.50
2023-05-19T04:10:26.052Z,96.97
2023-05-19T04:11:27.697Z,99.02
2023-05-19T04:12:29.259Z,100.00
2023-05-19T04:13:33.359Z,100.00
2023-05-19T04:14:34.926Z,100.00
2023-05-19T04:15:36.504Z,100.00
2023-05-19T04:16:38.131Z,100.00
2023-05-19T04:17:40.004Z,100.00
2023-05-19T04:18:42.400Z,100.00
2023-05-19T04:19:44.105Z,98.89
2023-05-19T04:20:45.743Z,99.47
2023-05-19T04:21:47.396Z,99.87
2023-05-19T04:22:48.999Z,99.83
2023-05-19T04:23:50.551Z,99.41
2023-05-19T04:24:53.067Z,98.12
2023-05-19T04:25:55.169Z,96.35
2023-05-19T04:26:56.842Z,95.79
2023-05-19T04:27:58.867Z,95.92
2023-05-19T04:29:04.153Z,95.77
2023-05-19T04:30:06.930Z,94.87
2023-05-19T04:31:12.889Z,93.46
2023-05-19T04:32:17.641Z,92.99
2023-05-19T04:33:20.161Z,92.95
2023-05-19T04:34:21.870Z,93.19
2023-05-19T04:35:23.823Z,93.49
2023-05-19T04:36:25.525Z,94.40
2023-05-19T04:37:27.235Z,95.43
2023-05-19T04:38:30.205Z,95.60
2023-05-19T04:39:31.743Z,95.44
2023-05-19T04:40:33.493Z,94.78
2023-05-19T04:41:35.267Z,92.48
2023-05-19T04:42:36.813Z,92.99
2023-05-19T04:43:44.541Z,91.63
2023-05-19T04:44:49.316Z,91.20
2023-05-19T04:45:51.524Z,91.13
2023-05-19T04:46:54.564Z,91.77
2023-05-19T04:47:58.275Z,92.36
2023-05-19T04:49:01.368Z,93.82
2023-05-19T04:50:04.187Z,95.17
2023-05-19T04:51:07.567Z,94.46
2023-05-19T04:52:10.898Z,93.98
2023-05-19T04:53:12.547Z,92.34
2023-05-19T04:54:14.140Z,93.20
2023-05-19T04:55:15.944Z,92.15
2023-05-19T04:56:17.536Z,92.18
2023-05-19T04:57:19.187Z,92.23
2023-05-19T04:58:22.510Z,90.62
2023-05-19T04:59:24.154Z,89.71
2023-05-19T05:00:26.058Z,90.36
2023-05-19T05:01:28.053Z,89.57
2023-05-19T05:02:29.720Z,89.07
2023-05-19T05:03:33.317Z,87.30
2023-05-19T05:04:36.056Z,87.78
2023-05-19T05:05:37.677Z,89.10
2023-05-19T05:06:40.591Z,89.09
2023-05-19T05:07:43.093Z,87.69
2023-05-19T05:08:44.671Z,86.16
2023-05-19T05:09:46.244Z,86.46
2023-05-19T05:10:48.066Z,86.02
2023-05-19T05:11:50.040Z,84.49
2023-05-19T05:12:51.965Z,83.39
2023-05-19T05:13:53.882Z,84.83
2023-05-19T05:14:55.660Z,83.82
2023-05-19T05:15:57.651Z,82.75
2023-05-19T05:16:59.588Z,82.75
2023-05-19T05:18:01.622Z,83.44
2023-05-19T05:19:03.890Z,83.37
2023-05-19T05:20:06.980Z,82.71
2023-05-19T05:21:09.169Z,81.60
2023-05-19T05:22:11.084Z,82.01
2023-05-19T05:23:16.708Z,82.04
2023-05-19T05:24:18.631Z,81.98
2023-05-19T05:25:20.848Z,81.84
2023-05-19T05:26:23.393Z,79.91
2023-05-19T05:27:24.984Z,80.78
2023-05-19T05:28:26.612Z,81.93
2023-05-19T05:29:28.242Z,81.46
2023-05-19T05:30:29.808Z,80.66
2023-05-19T05:31:31.685Z,80.57
2023-05-19T05:32:33.410Z,79.14
2023-05-19T05:33:35.117Z,78.75
2023-05-19T05:34:38.166Z,77.92
2023-05-19T05:35:39.811Z,77.60
2023-05-19T05:36:41.425Z,77.37
2023-05-19T05:37:43.048Z,74.43
2023-05-19T05:38:44.905Z,73.06
2023-05-19T05:39:46.509Z,73.40
2023-05-19T05:40:48.117Z,74.45
2023-05-19T05:41:49.751Z,73.58
2023-05-19T05:42:51.427Z,73.73
2023-05-19T05:43:53.008Z,73.84
2023-05-19T05:44:54.712Z,74.89
2023-05-19T05:45:57.294Z,75.16
2023-05-19T05:46:59.219Z,75.22
2023-05-19T05:48:01.222Z,75.39
2023-05-19T05:49:03.209Z,76.23
2023-05-19T05:50:06.237Z,76.89
2023-05-19T05:51:08.261Z,77.21
2023-05-19T05:52:12.458Z,77.32
2023-05-19T05:53:21.750Z,75.19
2023-05-19T05:54:24.984Z,75.04
2023-05-19T05:55:26.989Z,76.72
2023-05-19T05:56:28.974Z,79.56
2023-05-19T05:57:30.991Z,80.02
2023-05-19T05:58:36.296Z,79.22
2023-05-19T05:59:38.921Z,79.16
2023-05-19T06:00:43.561Z,78.32
2023-05-19T06:01:45.165Z,75.91
2023-05-19T06:02:49.399Z,75.12
2023-05-19T06:03:51.397Z,75.60
2023-05-19T06:04:54.179Z,75.40
2023-05-19T06:05:55.925Z,76.08
2023-05-19T06:07:01.207Z,74.99
2023-05-19T06:08:03.261Z,75.10
2023-05-19T06:09:05.505Z,72.84
2023-05-19T06:10:08.768Z,73.28
2023-05-19T06:11:10.448Z,75.05
2023-05-19T06:12:12.110Z,76.39
2023-05-19T06:13:13.738Z,76.75
2023-05-19T06:14:15.543Z,75.01
2023-05-19T06:15:17.257Z,74.42
2023-05-19T06:16:18.925Z,73.34
2023-05-19T06:17:20.538Z,72.55
2023-05-19T06:18:22.353Z,71.54
2023-05-19T06:19:25.565Z,73.79
2023-05-19T06:20:27.396Z,74.22
2023-05-19T06:21:29.088Z,74.52
2023-05-19T06:22:30.875Z,73.03
2023-05-19T06:23:32.565Z,72.78
2023-05-19T06:24:34.165Z,72.45
2023-05-19T06:25:35.907Z,72.59
2023-05-19T06:26:37.813Z,70.20
2023-05-19T06:27:39.489Z,69.94
2023-05-19T06:28:41.114Z,70.54
2023-05-19T06:29:42.679Z,70.15
2023-05-19T06:30:44.318Z,68.76
2023-05-19T06:31:46.565Z,71.13
2023-05-19T06:32:48.260Z,71.65
2023-05-19T06:33:49.866Z,68.67
2023-05-19T06:34:54.341Z,68.94
2023-05-19T06:35:56.228Z,69.46
2023-05-19T06:36:57.836Z,69.57
2023-05-19T06:37:59.381Z,69.38
2023-05-19T06:39:02.596Z,69.38
2023-05-19T06:40:05.693Z,67.94
2023-05-19T06:41:07.265Z,67.04
2023-05-19T06:42:08.867Z,65.27
2023-05-19T06:43:10.530Z,64.78
2023-05-19T06:44:12.140Z,63.26
2023-05-19T06:45:13.848Z,63.94
2023-05-19T06:46:17.760Z,67.00
2023-05-19T06:47:19.724Z,66.41
2023-05-19T06:48:21.351Z,65.77
2023-05-19T06:49:23.032Z,64.12
2023-05-19T06:50:25.484Z,62.71
2023-05-19T06:51:27.291Z,61.11
2023-05-19T06:52:28.955Z,59.38
2023-05-19T06:53:31.112Z,59.66
2023-05-19T06:54:32.780Z,60.72
2023-05-19T06:55:43.941Z,60.34
2023-05-19T06:56:52.330Z,61.02
2023-05-19T06:57:53.920Z,60.24
2023-05-19T06:58:55.549Z,60.27
2023-05-19T06:59:57.176Z,60.03
2023-05-19T07:00:58.736Z,62.48
2023-05-19T07:02:02.415Z,59.45
2023-05-19T07:03:04.318Z,61.06
2023-05-19T07:04:06.254Z,60.55
2023-05-19T07:05:08.303Z,59.84
2023-05-19T07:06:09.987Z,61.29
2023-05-19T07:07:11.583Z,60.07
2023-05-19T07:08:13.191Z,59.32
2023-05-19T07:09:14.757Z,60.16
2023-05-19T07:10:17.010Z,61.29
2023-05-19T07:11:18.580Z,62.32
2023-05-19T07:12:20.119Z,61.35
2023-05-19T07:13:22.105Z,60.01
2023-05-19T07:14:23.716Z,60.41
2023-05-19T07:15:25.693Z,60.73
2023-05-19T07:16:27.337Z,60.73
2023-05-19T07:17:28.932Z,61.24
2023-05-19T07:18:33.372Z,59.67
2023-05-19T07:19:34.985Z,59.89
2023-05-19T07:20:36.570Z,62.98
2023-05-19T07:21:38.224Z,61.05
2023-05-19T07:22:40.193Z,59.22
2023-05-19T07:23:41.922Z,57.11
2023-05-19T07:24:43.460Z,59.15
2023-05-19T07:25:45.051Z,58.87
2023-05-19T07:26:46.773Z,58.98
2023-05-19T07:27:48.314Z,60.31
2023-05-19T07:28:50.013Z,61.78
2023-05-19T07:29:51.626Z,62.10
2023-05-19T07:30:53.224Z,62.52
2023-05-19T07:31:57.949Z,61.15
2023-05-19T07:32:59.728Z,61.20
2023-05-19T07:34:01.479Z,58.58
2023-05-19T07:35:03.278Z,58.69
2023-05-19T07:36:05.056Z,59.39
2023-05-19T07:37:06.650Z,59.54
2023-05-19T07:38:08.242Z,59.78
2023-05-19T07:39:10.466Z,60.75
2023-05-19T07:40:12.304Z,65.41
2023-05-19T07:41:13.955Z,66.54
2023-05-19T07:42:15.554Z,65.50
2023-05-19T07:43:17.297Z,65.42
2023-05-19T07:44:19.279Z,64.13
2023-05-19T07:45:20.845Z,63.93
2023-05-19T07:46:22.546Z,62.67
2023-05-19T07:47:24.220Z,61.65
2023-05-19T07:48:25.997Z,61.97
2023-05-19T07:49:27.602Z,61.56
2023-05-19T07:50:29.223Z,60.85
2023-05-19T07:51:31.801Z,62.90
2023-05-19T07:52:33.474Z,60.32
2023-05-19T07:53:35.102Z,61.26
2023-05-19T07:54:36.755Z,60.02
2023-05-19T07:55:38.361Z,57.38
2023-05-19T07:56:40.080Z,58.48
2023-05-19T07:57:41.678Z,57.61
2023-05-19T07:58:43.337Z,57.56
2023-05-19T07:59:45.523Z,58.64
2023-05-19T08:00:47.113Z,58.44
2023-05-19T08:01:49.217Z,59.26
2023-05-19T08:02:51.349Z,58.77
2023-05-19T08:03:53.247Z,58.68
2023-05-19T08:04:55.057Z,56.40
2023-05-19T08:05:56.832Z,57.49
2023-05-19T08:06:58.600Z,61.94
2023-05-19T08:08:00.169Z,61.66
2023-05-19T08:09:01.957Z,60.23
2023-05-19T08:10:04.199Z,58.90
2023-05-19T08:11:06.653Z,58.08
2023-05-19T08:12:08.352Z,55.37
2023-05-19T08:13:09.937Z,54.63
2023-05-19T08:14:11.491Z,55.60
2023-05-19T08:15:13.139Z,54.99
2023-05-19T08:16:16.223Z,55.89
2023-05-19T08:17:17.936Z,55.55
2023-05-19T08:18:20.174Z,55.66
2023-05-19T08:19:21.862Z,55.94
2023-05-19T08:20:24.448Z,56.71
2023-05-19T08:21:26.058Z,59.00
2023-05-19T08:22:28.123Z,58.70
2023-05-19T08:23:29.851Z,54.82
2023-05-19T08:24:32.915Z,52.25
2023-05-19T08:25:40.981Z,52.18
2023-05-19T08:26:44.429Z,52.00
2023-05-19T08:27:46.138Z,52.67
2023-05-19T08:28:47.810Z,52.74
2023-05-19T08:29:49.522Z,52.30
2023-05-19T08:31:00.076Z,51.42
2023-05-19T08:32:02.814Z,51.33
2023-05-19T08:33:04.489Z,52.74
2023-05-19T08:34:06.198Z,52.36
2023-05-19T08:35:08.498Z,51.89
2023-05-19T08:36:16.257Z,54.27
2023-05-19T08:37:17.843Z,51.89
2023-05-19T08:38:19.432Z,52.29
2023-05-19T08:39:26.574Z,53.54
2023-05-19T08:40:31.530Z,53.07
2023-05-19T08:44:36.525Z,52.92
2023-05-19T08:45:43.133Z,54.00
2023-05-19T08:46:44.998Z,51.76
2023-05-19T08:47:47.463Z,53.17
2023-05-19T08:48:54.279Z,54.38
2023-05-19T08:51:42.849Z,54.76
2023-05-19T08:53:31.929Z,54.38
2023-05-19T08:54:46.033Z,52.83
2023-05-19T08:55:53.367Z,52.84
2023-05-19T08:56:55.619Z,53.99
2023-05-19T08:57:57.390Z,54.20
2023-05-19T08:59:00.491Z,54.19
2023-05-19T09:00:09.183Z,53.44
2023-05-19T09:01:14.503Z,53.01
2023-05-19T09:02:16.726Z,56.02
2023-05-19T09:04:28.400Z,53.90
2023-05-19T09:05:32.614Z,53.11
2023-05-19T09:06:34.913Z,52.30
2023-05-19T09:07:37.951Z,53.57
2023-05-19T09:08:41.020Z,55.68
2023-05-19T09:09:44.119Z,53.54
2023-05-19T09:10:45.815Z,53.63
2023-05-19T09:11:47.493Z,55.35
2023-05-19T09:12:49.899Z,53.02
2023-05-19T09:13:51.991Z,52.23
2023-05-19T09:14:53.947Z,53.69
2023-05-19T09:15:57.476Z,52.06
2023-05-19T09:16:59.204Z,52.53
2023-05-19T09:18:14.199Z,52.74
2023-05-19T09:19:16.104Z,52.89
2023-05-19T09:20:17.759Z,52.98
2023-05-19T09:21:19.430Z,54.59
2023-05-19T09:22:21.219Z,52.57
2023-05-19T09:23:24.979Z,53.28
2023-05-19T09:24:27.626Z,53.37
2023-05-19T09:25:29.256Z,53.69
2023-05-19T09:26:43.093Z,52.31
2023-05-19T09:27:46.927Z,52.57
2023-05-19T09:28:48.677Z,53.44
2023-05-19T09:29:51.007Z,53.83
2023-05-19T09:31:09.309Z,54.43
2023-05-19T09:32:11.106Z,54.93
2023-05-19T09:33:19.499Z,53.91
2023-05-19T09:34:22.471Z,53.24
2023-05-19T09:35:24.091Z,51.81
2023-05-19T09:36:25.801Z,53.32
2023-05-19T09:37:28.016Z,51.12
2023-05-19T09:38:29.793Z,50.91
2023-05-19T09:39:32.845Z,50.05
2023-05-19T09:40:34.538Z,49.65
2023-05-19T09:41:36.220Z,49.05
2023-05-19T09:42:39.112Z,49.74
2023-05-19T09:43:40.698Z,50.42
2023-05-19T09:44:42.621Z,54.08
2023-05-19T09:45:44.442Z,53.16
2023-05-19T09:46:53.279Z,53.57
2023-05-19T09:47:54.906Z,52.38
2023-05-19T09:48:59.618Z,51.08
2023-05-19T09:50:01.206Z,53.40
2023-05-19T09:51:07.938Z,52.67
2023-05-19T09:52:11.184Z,49.61
2023-05-19T09:53:17.469Z,48.76
2023-05-19T09:54:20.553Z,45.95
2023-05-19T09:55:26.978Z,47.84
2023-05-19T09:56:34.515Z,49.19
2023-05-19T09:57:37.306Z,46.44
2023-05-19T09:58:42.318Z,46.07
2023-05-19T09:59:44.744Z,46.37
2023-05-19T10:00:47.852Z,45.64
2023-05-19T10:01:49.682Z,43.39
2023-05-19T10:02:51.738Z,44.55
2023-05-19T10:03:53.765Z,44.33
2023-05-19T10:04:55.937Z,46.43
2023-05-19T10:05:57.766Z,48.55
2023-05-19T10:07:00.213Z,49.37
2023-05-19T10:08:03.172Z,49.87
2023-05-19T10:09:05.584Z,47.35
2023-05-19T10:10:09.794Z,47.99
2023-05-19T10:11:12.251Z,47.78
2023-05-19T10:12:13.933Z,46.81
2023-05-19T10:13:16.749Z,42.73
2023-05-19T10:14:19.266Z,43.85
2023-05-19T10:15:23.194Z,44.34
2023-05-19T10:16:26.768Z,45.01
2023-05-19T10:17:29.058Z,45.15
2023-05-19T10:18:32.727Z,45.81
2023-05-19T10:19:36.494Z,49.49
2023-05-19T10:20:40.175Z,47.27
2023-05-19T10:21:41.760Z,46.15
2023-05-19T10:22:47.119Z,45.29
2023-05-19T10:23:48.752Z,47.24
2023-05-19T10:24:50.424Z,49.01
2023-05-19T10:25:57.304Z,46.77
2023-05-19T10:27:05.558Z,46.45
2023-05-19T10:28:11.622Z,47.49
2023-05-19T10:29:17.656Z,48.42
2023-05-19T10:30:26.462Z,48.10
2023-05-19T10:31:28.652Z,49.85
2023-05-19T10:32:32.717Z,48.63
2023-05-19T10:34:14.240Z,50.87
2023-05-19T10:36:08.380Z,50.61
2023-05-19T10:37:21.703Z,50.02
2023-05-19T10:38:35.120Z,49.94
2023-05-19T10:39:36.865Z,49.42
2023-05-19T10:41:11.693Z,48.81
2023-05-19T10:42:24.278Z,50.94
2023-05-19T10:43:36.299Z,49.94
2023-05-19T10:44:58.498Z,48.81
2023-05-19T10:46:00.169Z,50.73
2023-05-19T10:47:02.036Z,51.93
2023-05-19T10:48:04.582Z,51.03
2023-05-19T10:49:08.022Z,49.46
2023-05-19T10:50:10.691Z,50.46
2023-05-19T10:51:12.472Z,52.24
2023-05-19T10:52:26.201Z,53.18
2023-05-19T10:53:32.711Z,51.46
2023-05-19T10:54:46.857Z,50.36
2023-05-19T10:55:53.459Z,50.23
2023-05-19T10:56:57.052Z,49.87
2023-05-19T10:57:58.651Z,49.40
2023-05-19T10:59:01.287Z,49.66
2023-05-19T11:00:11.724Z,50.01
2023-05-19T11:01:15.136Z,50.23
2023-05-19T11:02:43.262Z,48.91
2023-05-19T11:03:50.097Z,48.39
2023-05-19T11:04:52.399Z,49.10
2023-05-19T11:06:14.022Z,50.61
2023-05-19T11:07:22.479Z,49.63
2023-05-19T11:08:34.982Z,48.92
2023-05-19T11:09:43.041Z,48.60
2023-05-19T11:10:46.662Z,48.75
2023-05-19T11:11:54.662Z,48.48
2023-05-19T11:12:58.246Z,49.70
2023-05-19T11:14:00.397Z,47.92
2023-05-19T11:15:03.359Z,49.47
2023-05-19T11:16:09.105Z,49.44
2023-05-19T11:17:15.634Z,48.40
2023-05-19T11:18:17.438Z,47.20
2023-05-19T11:19:25.502Z,47.32
2023-05-19T11:20:28.790Z,48.17
2023-05-19T11:21:52.288Z,47.29
2023-05-19T11:23:23.879Z,47.23
2023-05-19T11:24:46.409Z,46.95
2023-05-19T11:25:51.148Z,47.10
2023-05-19T11:26:54.858Z,47.19
2023-05-19T11:27:56.828Z,49.06
2023-05-19T11:30:34.029Z,45.79
2023-05-19T11:31:36.499Z,46.40
2023-05-19T11:32:44.352Z,47.26
2023-05-19T11:33:46.235Z,50.88
2023-05-19T11:34:49.491Z,48.61
2023-05-19T11:35:52.136Z,48.22
2023-05-19T11:36:53.807Z,49.98
2023-05-19T11:37:56.240Z,53.26
2023-05-19T11:38:59.922Z,51.18
2023-05-19T11:40:02.394Z,50.92
2023-05-19T11:42:39.970Z,50.46
2023-05-19T11:43:42.123Z,52.38
2023-05-19T11:44:47.724Z,52.65
2023-05-19T11:45:49.686Z,51.24
2023-05-19T11:46:51.809Z,48.97
2023-05-19T11:48:03.157Z,48.61
2023-05-19T11:49:05.373Z,48.65
2023-05-19T11:50:07.749Z,49.18
2023-05-19T11:51:09.402Z,48.30
2023-05-19T11:52:11.897Z,47.83
2023-05-19T11:53:14.275Z,46.32
2023-05-19T11:54:19.308Z,44.79
2023-05-19T11:55:22.503Z,45.74
2023-05-19T11:56:24.097Z,48.29
2023-05-19T11:57:25.791Z,49.08
2023-05-19T11:58:28.246Z,46.72
2023-05-19T11:59:37.811Z,46.89
2023-05-19T12:00:40.909Z,48.02
2023-05-19T12:01:42.749Z,46.38
2023-05-19T12:02:44.365Z,46.24
2023-05-19T12:03:46.554Z,45.54
2023-05-19T12:04:51.773Z,44.84
2023-05-19T12:05:54.042Z,44.52
2023-05-19T12:06:55.776Z,44.82
2023-05-19T12:07:57.769Z,44.47
2023-05-19T12:09:00.056Z,45.17
2023-05-19T12:10:01.819Z,45.86
2023-05-19T12:11:04.552Z,46.49
2023-05-19T12:12:06.311Z,47.21
2023-05-19T12:13:09.957Z,46.68
2023-05-19T12:14:13.016Z,46.51
2023-05-19T12:15:14.682Z,45.95
2023-05-19T12:16:19.814Z,45.06
2023-05-19T12:17:23.941Z,44.82
2023-05-19T12:18:30.691Z,44.73
2023-05-19T12:19:32.558Z,44.03
2023-05-19T12:20:36.133Z,44.57
2023-05-19T12:21:38.506Z,45.66
2023-05-19T12:22:40.399Z,45.95
2023-05-19T12:23:42.655Z,47.34
2023-05-19T12:24:47.103Z,47.14
2023-05-19T12:25:49.349Z,47.04
2023-05-19T12:26:50.949Z,47.80
2023-05-19T12:27:58.082Z,48.22
2023-05-19T12:29:00.037Z,49.34
2023-05-19T12:30:03.699Z,48.53
2023-05-19T12:31:06.066Z,48.13
2023-05-19T12:32:09.155Z,49.38
2023-05-19T12:33:11.944Z,49.48
2023-05-19T12:34:14.026Z,48.79
2023-05-19T12:35:15.943Z,49.05
2023-05-19T12:36:18.435Z,48.87
2023-05-19T12:37:20.044Z,49.88
2023-05-19T12:38:22.971Z,47.50
2023-05-19T12:39:24.828Z,48.47
2023-05-19T12:40:29.367Z,48.93
2023-05-19T12:41:31.016Z,48.34
2023-05-19T12:42:32.735Z,49.15
2023-05-19T12:43:34.273Z,49.14
2023-05-19T12:44:43.879Z,48.86
2023-05-19T12:45:45.574Z,49.17
2023-05-19T12:46:47.229Z,48.56
2023-05-19T12:47:50.242Z,48.15
2023-05-19T12:48:51.894Z,46.51
2023-05-19T12:50:13.739Z,46.36
2023-05-19T12:51:19.986Z,47.08
2023-05-19T12:52:25.383Z,46.87
2023-05-19T12:53:28.100Z,45.88
2023-05-19T12:54:35.535Z,45.29
2023-05-19T12:55:45.645Z,46.11
2023-05-19T12:56:55.014Z,46.91
2023-05-19T12:57:58.388Z,44.83
2023-05-19T12:59:01.986Z,45.19
2023-05-19T13:00:15.408Z,46.05
2023-05-19T13:01:18.617Z,44.31
2023-05-19T13:02:21.412Z,44.76
2023-05-19T13:03:23.131Z,43.49
2023-05-19T13:04:26.133Z,43.10
2023-05-19T13:05:29.403Z,42.44
2023-05-19T13:06:32.824Z,42.57
2023-05-19T13:07:35.745Z,44.07
2023-05-19T13:08:41.223Z,43.85
2023-05-19T13:09:42.813Z,43.40
2023-05-19T13:10:45.999Z,43.83
2023-05-19T13:11:54.864Z,44.01
2023-05-19T13:12:57.635Z,44.22
2023-05-19T13:13:59.224Z,43.22
2023-05-19T13:15:01.955Z,43.64
2023-05-19T13:16:03.639Z,42.69
2023-05-19T13:17:06.361Z,43.43
2023-05-19T13:18:10.328Z,44.44
2023-05-19T13:19:25.026Z,43.32
2023-05-19T13:20:28.637Z,43.74
2023-05-19T13:21:30.415Z,44.85
2023-05-19T13:22:32.044Z,44.62
2023-05-19T13:23:34.846Z,44.50
2023-05-19T13:24:36.493Z,45.89
2023-05-19T13:25:38.098Z,44.37
2023-05-19T13:26:41.641Z,46.47
2023-05-19T13:27:45.809Z,46.18
2023-05-19T13:28:47.943Z,45.59
2023-05-19T13:29:49.644Z,44.80
2023-05-19T13:30:52.171Z,42.51
2023-05-19T13:31:54.057Z,43.05
2023-05-19T13:32:55.966Z,44.03
2023-05-19T13:33:57.752Z,45.63
2023-05-19T13:35:01.814Z,45.85
2023-05-19T13:36:03.557Z,44.59
2023-05-19T13:37:06.167Z,44.90
2023-05-19T13:38:10.515Z,45.90
2023-05-19T13:39:12.445Z,45.49
2023-05-19T13:40:15.219Z,44.09
2023-05-19T13:41:18.298Z,43.88
2023-05-19T13:42:20.007Z,43.68
2023-05-19T13:43:21.864Z,42.93
2023-05-19T13:44:25.812Z,42.64
2023-05-19T13:45:27.550Z,44.31
2023-05-19T13:46:40.964Z,42.15
2023-05-19T13:47:46.706Z,42.45
2023-05-19T13:48:48.319Z,42.63